Time;durP1;ratioP1;P1;durP2;ratioP2;P2;SDS_P1;SDS_P2;PMS_P1;PMS_P2;Temp;Humidity;BMP_temperature;BMP_pressure;BME280_temperature;BME280_humidity;BME280_pressure;Samples;Min_cycle;Max_cycle;Signal;HPM_P1;HPM_P2
2022/04/03 00:00:58;;;;;;;6.65;2.25;;;;;;;6.31;41.27;102252.22;5121624;28;20112;-58
2022/04/03 00:03:27;;;;;;;3.35;2.08;;;;;;;6.28;41.53;102247.19;5118539;28;20075;-57
2022/04/03 00:05:55;;;;;;;4.40;2.13;;;;;;;6.28;41.66;102247.19;5115706;28;20040;-57
2022/04/03 00:08:23;;;;;;;5.05;1.88;;;;;;;6.28;41.56;102250.69;5111850;28;20097;-58
2022/04/03 00:10:50;;;;;;;3.38;1.80;;;;;;;6.26;41.62;102252.69;5119122;28;20112;-58
2022/04/03 00:13:18;;;;;;;8.73;2.30;;;;;;;6.20;41.35;102242.66;5119064;28;20113;-58
2022/04/03 00:15:46;;;;;;;4.03;2.15;;;;;;;6.24;41.79;102251.16;5121081;28;20492;-57
2022/04/03 00:18:14;;;;;;;4.68;2.70;;;;;;;6.23;41.68;102252.16;5109432;28;20074;-57
2022/04/03 00:20:46;;;;;;;3.50;1.88;;;;;;;6.22;41.63;102256.66;5119453;28;20138;-57
2022/04/03 00:23:14;;;;;;;3.53;2.05;;;;;;;6.21;41.45;102249.66;5121130;28;20047;-58
2022/04/03 00:25:42;;;;;;;4.03;1.85;;;;;;;6.22;41.80;102254.00;5106638;28;20131;-58
2022/04/03 00:28:10;;;;;;;6.78;2.40;;;;;;;6.19;41.20;102252.47;5119495;28;20051;-58
2022/04/03 00:30:37;;;;;;;4.60;2.20;;;;;;;6.16;41.51;102252.81;5117394;28;20135;-57
2022/04/03 00:33:05;;;;;;;4.30;2.00;;;;;;;6.17;41.62;102257.16;5118273;28;20067;-57
2022/04/03 00:35:33;;;;;;;5.13;2.50;;;;;;;6.19;41.61;102254.31;5119894;28;20146;-58
2022/04/03 00:38:02;;;;;;;9.70;2.20;;;;;;;6.16;41.51;102255.47;5117204;28;20086;-58
2022/04/03 00:40:30;;;;;;;9.85;2.83;;;;;;;6.14;41.57;102251.28;5113890;28;20464;-58
2022/04/03 00:42:58;;;;;;;3.88;2.10;;;;;;;6.12;41.78;102253.28;5119907;28;20075;-58
2022/04/03 00:45:26;;;;;;;3.78;2.17;;;;;;;6.14;41.54;102251.28;5115875;28;20048;-57
2022/04/03 00:47:56;;;;;;;4.20;2.03;;;;;;;6.09;41.91;102251.75;5112531;28;20071;-57
2022/04/03 00:50:24;;;;;;;4.80;2.05;;;;;;;6.13;41.67;102253.13;5109622;28;20056;-57
2022/04/03 00:52:52;;;;;;;4.63;1.98;;;;;;;6.12;41.86;102247.94;5114239;28;20071;-58
2022/04/03 00:55:21;;;;;;;5.57;2.38;;;;;;;6.10;41.65;102252.59;5105688;28;20055;-57
2022/04/03 00:57:49;;;;;;;4.07;2.08;;;;;;;6.11;41.59;102255.09;5113542;28;20083;-59
2022/04/03 01:00:17;;;;;;;5.60;2.05;;;;;;;6.10;41.72;102250.75;5117465;28;20048;-58
2022/04/03 01:02:45;;;;;;;4.65;2.17;;;;;;;6.08;41.88;102247.41;5121868;28;20067;-57
2022/04/03 01:05:13;;;;;;;7.68;2.40;;;;;;;6.07;42.05;102250.25;5114643;28;20119;-58
2022/04/03 01:07:40;;;;;;;5.43;3.22;;;;;;;6.04;41.80;102254.06;5121702;28;20055;-58
2022/04/03 01:10:09;;;;;;;5.03;2.42;;;;;;;6.03;41.75;102255.06;5125056;28;20101;-57
2022/04/03 01:12:40;;;;;;;4.97;2.25;;;;;;;5.89;41.96;102236.97;5117451;28;20051;-57
2022/04/03 01:15:18;;;;;;;6.30;2.60;;;;;;;6.00;41.95;102259.88;5119523;28;20048;-57
2022/04/03 01:17:46;;;;;;;5.00;2.78;;;;;;;5.98;42.25;102253.84;5124663;27;20099;-58
2022/04/03 01:20:14;;;;;;;4.93;2.20;;;;;;;5.98;41.83;102248.53;5109358;28;20071;-57
2022/04/03 01:22:42;;;;;;;5.05;2.28;;;;;;;5.97;42.04;102257.53;5120061;28;20446;-58
2022/04/03 01:25:11;;;;;;;4.25;2.40;;;;;;;5.97;42.34;102260.19;5115987;28;20048;-58
2022/04/03 01:27:39;;;;;;;3.95;2.50;;;;;;;5.99;42.22;102258.19;5121138;28;20111;-58
2022/04/03 01:30:10;;;;;;;3.30;2.30;;;;;;;6.01;42.00;102253.53;5113378;28;20396;-58
2022/04/03 01:32:39;;;;;;;5.07;2.92;;;;;;;6.00;41.95;102251.88;5111341;28;20135;-58
2022/04/03 01:35:08;;;;;;;3.72;2.17;;;;;;;5.99;41.82;102252.84;5122453;27;20081;-58
2022/04/03 01:37:36;;;;;;;5.13;2.92;;;;;;;5.99;42.11;102255.53;5114930;28;20087;-59
2022/04/03 01:40:04;;;;;;;6.80;2.65;;;;;;;5.97;42.24;102244.19;5112914;28;20039;-59
2022/04/03 01:42:33;;;;;;;4.40;2.58;;;;;;;5.97;42.33;102246.84;5112895;28;20441;-59
2022/04/03 01:45:01;;;;;;;5.72;2.33;;;;;;;5.92;42.50;102238.47;5130895;27;20043;-58
2022/04/03 01:47:29;;;;;;;5.05;2.70;;;;;;;5.96;41.98;102242.50;5121812;28;20055;-58
2022/04/03 01:49:56;;;;;;;4.07;2.58;;;;;;;5.94;42.02;102241.81;5123430;28;20485;-58
2022/04/03 01:52:24;;;;;;;5.05;2.30;;;;;;;5.95;42.60;102248.84;5118348;28;20401;-59
2022/04/03 01:54:52;;;;;;;4.93;2.80;;;;;;;5.93;42.29;102251.66;5114960;28;20477;-58
2022/04/03 01:57:19;;;;;;;5.30;2.53;;;;;;;5.93;42.18;102245.47;5118672;28;20460;-59
2022/04/03 01:59:49;;;;;;;4.35;2.28;;;;;;;5.93;42.45;102245.47;5121776;28;20158;-58
2022/04/03 02:02:16;;;;;;;5.65;2.80;;;;;;;5.92;42.35;102236.63;5110542;28;20048;-58
2022/04/03 02:04:46;;;;;;;4.55;2.20;;;;;;;5.84;42.32;102232.06;5125880;27;20067;-58
2022/04/03 02:07:13;;;;;;;4.78;2.45;;;;;;;5.91;42.20;102232.31;5116767;28;20082;-59
2022/04/03 02:09:42;;;;;;;5.60;2.72;;;;;;;5.90;42.38;102232.47;5118602;28;20075;-59
2022/04/03 02:12:10;;;;;;;8.05;2.95;;;;;;;5.90;42.63;102241.28;5123092;28;20047;-59
2022/04/03 02:14:38;;;;;;;6.38;2.60;;;;;;;5.88;42.66;102238.75;5123809;28;20497;-59
2022/04/03 02:17:09;;;;;;;4.88;2.25;;;;;;;5.87;42.80;102238.91;5121615;28;20476;-59
2022/04/03 02:19:37;;;;;;;5.72;2.50;;;;;;;5.84;42.74;102234.72;5120472;28;20044;-58
2022/04/03 02:22:05;;;;;;;4.03;2.65;;;;;;;5.84;42.68;102240.06;5114805;28;20071;-59
2022/04/03 02:24:33;;;;;;;4.88;2.30;;;;;;;5.83;43.05;102232.22;5124160;28;20130;-59
2022/04/03 02:27:01;;;;;;;3.97;2.28;;;;;;;5.83;42.95;102233.06;5107810;28;20048;-59
2022/04/03 02:29:29;;;;;;;3.92;2.22;;;;;;;5.83;42.48;102235.72;5110703;28;20385;-58
2022/04/03 02:31:58;;;;;;;5.40;2.78;;;;;;;5.82;42.60;102227.88;5113104;28;20078;-57
2022/04/03 02:34:27;;;;;;;5.28;2.47;;;;;;;5.82;42.74;102236.72;5122162;28;20082;-57
2022/04/03 02:36:54;;;;;;;4.82;2.35;;;;;;;5.83;42.97;102232.22;5121891;28;20071;-59
2022/04/03 02:39:22;;;;;;;4.03;2.38;;;;;;;5.81;42.91;102235.03;5111088;28;20079;-57
2022/04/03 02:41:50;;;;;;;5.47;2.40;;;;;;;5.80;43.07;102224.53;5122257;27;20690;-61
2022/04/03 02:44:18;;;;;;;5.63;2.13;;;;;;;5.79;43.17;102230.84;5123409;28;20101;-58
2022/04/03 02:46:46;;;;;;;5.28;2.63;;;;;;;5.81;42.61;102236.88;5112506;28;20125;-57
2022/04/03 02:49:13;;;;;;;4.72;2.83;;;;;;;5.76;43.09;102229.34;5111286;28;20046;-57
2022/04/03 02:51:42;;;;;;;4.65;2.40;;;;;;;5.76;43.34;102234.66;5126196;27;20078;-57
2022/04/03 02:54:10;;;;;;;4.53;2.35;;;;;;;5.76;42.88;102229.34;5117898;28;20067;-58
2022/04/03 02:56:38;;;;;;;5.68;3.13;;;;;;;5.75;43.40;102234.81;5109506;28;20482;-57
2022/04/03 02:59:06;;;;;;;5.32;2.78;;;;;;;5.75;43.02;102237.50;5122583;28;20097;-58
2022/04/03 03:01:34;;;;;;;5.40;2.60;;;;;;;5.75;43.27;102234.81;5119680;27;20075;-58
2022/04/03 03:04:01;;;;;;;3.90;2.58;;;;;;;5.72;42.89;102235.97;5114984;28;20051;-59
2022/04/03 03:06:29;;;;;;;5.90;2.90;;;;;;;5.71;43.24;102236.13;5121588;28;20066;-58
2022/04/03 03:08:58;;;;;;;4.78;2.50;;;;;;;5.72;43.04;102243.13;5113628;28;20058;-56
2022/04/03 03:11:26;;;;;;;5.07;2.83;;;;;;;5.71;43.38;102247.63;5107488;28;20079;-58
2022/04/03 03:13:53;;;;;;;5.15;2.42;;;;;;;5.70;42.78;102237.13;5115991;28;20094;-57
2022/04/03 03:16:21;;;;;;;5.90;2.22;;;;;;;5.68;42.84;102245.28;5112306;28;20040;-57
2022/04/03 03:18:49;;;;;;;10.38;3.42;;;;;;;5.67;42.89;102248.09;5118652;28;21328;-58
2022/04/03 03:21:16;;;;;;;8.68;3.17;;;;;;;5.67;43.13;102251.59;5113613;28;20067;-59
2022/04/03 03:23:44;;;;;;;4.18;2.45;;;;;;;5.66;43.01;102246.44;5123699;27;20071;-58
2022/04/03 03:26:13;;;;;;;5.20;2.70;;;;;;;5.65;43.19;102255.41;5108038;28;20072;-58
2022/04/03 03:28:41;;;;;;;4.90;2.75;;;;;;;5.63;43.22;102252.91;5108147;28;20047;-59
2022/04/03 03:31:09;;;;;;;5.53;2.60;;;;;;;5.64;43.43;102254.59;5120704;28;20048;-59
2022/04/03 03:33:36;;;;;;;5.00;2.55;;;;;;;5.63;43.04;102252.91;5114278;28;20064;-58
2022/04/03 03:36:05;;;;;;;4.53;2.30;;;;;;;5.63;43.76;102252.91;5110884;28;20071;-58
2022/04/03 03:38:33;;;;;;;5.25;2.88;;;;;;;5.62;43.77;102255.72;5114130;28;20056;-59
2022/04/03 03:41:00;;;;;;;4.53;2.60;;;;;;;5.61;43.64;102259.38;5104153;28;20044;-59
2022/04/03 03:43:30;;;;;;;7.47;3.08;;;;;;;5.59;43.69;102262.22;5112411;27;20044;-58
2022/04/03 03:45:58;;;;;;;9.13;3.72;;;;;;;5.60;43.37;102257.72;5113485;27;20452;-58
2022/04/03 03:48:26;;;;;;;5.63;2.58;;;;;;;5.54;43.69;102251.16;5101778;28;20413;-59
2022/04/03 03:50:55;;;;;;;4.32;2.50;;;;;;;5.57;43.56;102256.19;5120064;28;20039;-59
2022/04/03 03:53:23;;;;;;;5.00;2.75;;;;;;;5.57;43.42;102261.53;5114363;28;20172;-58
2022/04/03 03:55:50;;;;;;;4.97;2.60;;;;;;;5.57;43.77;102258.88;5127402;27;20044;-58
2022/04/03 03:58:18;;;;;;;4.97;2.90;;;;;;;5.52;43.70;102255.81;5104822;28;20097;-58
2022/04/03 04:00:48;;;;;;;6.10;2.50;;;;;;;5.55;43.97;102261.69;5115419;28;20062;-59
2022/04/03 04:03:16;;;;;;;8.68;2.45;;;;;;;5.53;43.69;102255.66;5112234;28;20483;-60
2022/04/03 04:05:43;;;;;;;6.82;2.72;;;;;;;5.49;43.85;102246.31;5112099;28;20079;-58
2022/04/03 04:08:11;;;;;;;8.52;2.47;;;;;;;5.53;43.62;102257.50;5109524;28;20468;-58
2022/04/03 04:10:39;;;;;;;6.20;2.95;;;;;;;5.53;43.56;102260.16;5111035;28;20516;-59
2022/04/03 04:13:07;;;;;;;4.55;3.22;;;;;;;5.53;43.72;102258.34;5108476;28;20052;-59
2022/04/03 04:15:34;;;;;;;5.45;2.55;;;;;;;5.53;43.58;102262.81;5109328;28;20047;-59
2022/04/03 04:18:04;;;;;;;5.07;2.78;;;;;;;5.50;43.87;102260.47;5116977;28;20075;-59
2022/04/03 04:20:32;;;;;;;5.82;2.60;;;;;;;5.51;44.06;102264.81;5120434;28;20108;-59
2022/04/03 04:23:00;;;;;;;5.00;3.17;;;;;;;5.48;44.05;102263.28;5111178;28;20058;-59
2022/04/03 04:25:28;;;;;;;5.63;2.58;;;;;;;5.48;43.34;102268.63;5118669;28;20420;-59
2022/04/03 04:27:56;;;;;;;3.53;2.55;;;;;;;5.48;44.02;102270.44;5123354;28;20063;-59
2022/04/03 04:30:24;;;;;;;4.22;2.58;;;;;;;5.47;44.07;102268.78;5121120;28;20062;-59
2022/04/03 04:32:51;;;;;;;3.90;2.30;;;;;;;5.46;43.93;102270.59;5119514;28;20075;-59
2022/04/03 04:35:21;;;;;;;4.95;2.75;;;;;;;5.37;43.66;102257.34;5112264;28;20050;-59
2022/04/03 04:37:49;;;;;;;5.60;2.30;;;;;;;5.44;44.31;102277.09;5115673;28;20078;-59
2022/04/03 04:40:16;;;;;;;6.10;3.00;;;;;;;5.43;43.97;102281.56;5118927;28;20075;-59
2022/04/03 04:42:44;;;;;;;5.03;2.78;;;;;;;5.39;43.45;102272.22;5118285;28;20063;-58
2022/04/03 04:45:14;;;;;;;6.63;2.88;;;;;;;5.39;43.48;102280.22;5125599;28;20123;-59
2022/04/03 04:47:48;;;;;;;4.57;2.53;;;;;;;5.41;44.23;102275.56;5118216;27;20056;-59
2022/04/03 04:50:18;;;;;;;6.57;2.50;;;;;;;5.37;43.76;102276.84;5122022;28;20052;-59
2022/04/03 04:52:47;;;;;;;4.93;2.97;;;;;;;5.36;43.90;102279.66;5122423;28;20051;-59
2022/04/03 04:55:15;;;;;;;5.22;2.90;;;;;;;5.35;43.56;102270.00;5113276;28;20104;-57
2022/04/03 04:57:49;;;;;;;5.30;2.65;;;;;;;5.35;43.96;102272.66;5108809;28;20078;-57
2022/04/03 05:00:20;;;;;;;5.03;2.30;;;;;;;5.35;43.89;102273.50;5122836;28;20082;-57
2022/04/03 05:02:48;;;;;;;5.75;2.95;;;;;;;5.34;43.87;102274.50;5122712;28;20067;-58
2022/04/03 05:05:17;;;;;;;5.15;2.80;;;;;;;5.46;43.88;102285.75;5121643;28;20067;-58
2022/04/03 05:07:48;;;;;;;4.57;2.63;;;;;;;5.57;43.66;102278.38;5108629;28;20074;-58
2022/04/03 05:10:17;;;;;;;5.85;2.70;;;;;;;5.70;42.94;102288.63;5116526;27;20078;-58
2022/04/03 05:12:45;;;;;;;4.15;2.85;;;;;;;5.82;42.79;102292.75;5116922;28;20067;-58
2022/04/03 05:15:13;;;;;;;6.55;2.97;;;;;;;6.00;42.14;102303.41;5123566;28;20059;-60
2022/04/03 05:17:42;;;;;;;5.20;2.60;;;;;;;6.12;42.37;102290.66;5117519;28;20062;-59
2022/04/03 05:20:11;;;;;;;7.85;2.47;;;;;;;6.24;41.83;102302.72;5128621;27;20097;-60
2022/04/03 05:22:39;;;;;;;9.98;2.90;;;;;;;6.39;41.35;102302.97;4748624;28;9999754;-59
2022/04/03 05:25:11;;;;;;;8.35;3.05;;;;;;;6.50;41.40;102292.88;5119869;28;20117;-59
2022/04/03 05:27:39;;;;;;;5.88;3.00;;;;;;;6.62;41.09;102304.09;5120521;28;20058;-60
2022/04/03 05:30:07;;;;;;;4.90;2.70;;;;;;;6.76;40.53;102297.31;5106331;28;20071;-58
2022/04/03 05:32:36;;;;;;;6.65;3.50;;;;;;;6.87;40.79;102299.69;5108064;28;20086;-59
2022/04/03 05:35:06;;;;;;;5.45;2.80;;;;;;;6.89;40.59;102303.03;5120043;28;20052;-59
2022/04/03 05:37:39;;;;;;;6.88;2.90;;;;;;;6.74;40.28;102280.59;5117342;28;20411;-58
2022/04/03 05:40:11;;;;;;;4.85;2.80;;;;;;;6.71;40.71;102300.47;5110246;27;20048;-59
2022/04/03 05:42:39;;;;;;;4.03;2.50;;;;;;;6.53;41.13;102299.72;5119639;27;20102;-59
2022/04/03 05:45:09;;;;;;;4.97;2.85;;;;;;;6.37;41.67;102304.97;5113282;27;20047;-57
2022/04/03 05:47:37;;;;;;;4.95;3.13;;;;;;;6.22;42.09;102307.38;5106119;28;20102;-57
2022/04/03 05:50:10;;;;;;;5.55;3.50;;;;;;;6.14;41.93;102315.34;5114324;28;20043;-58
2022/04/03 05:52:43;;;;;;;7.10;3.05;;;;;;;6.02;42.37;102319.25;5108802;28;20075;-59
2022/04/03 05:55:12;;;;;;;4.10;2.70;;;;;;;5.94;42.59;102317.38;5114359;28;20068;-59
2022/04/03 05:57:40;;;;;;;4.72;2.83;;;;;;;5.89;42.86;102327.66;5108461;28;20079;-58
2022/04/03 06:00:12;;;;;;;6.05;3.05;;;;;;;5.84;42.93;102319.25;5107509;28;20489;-58
2022/04/03 06:02:47;;;;;;;7.82;3.63;;;;;;;5.82;43.10;102323.91;5107268;28;20055;-59
2022/04/03 06:05:15;;;;;;;4.78;2.95;;;;;;;5.76;43.06;102329.88;5119845;27;20167;-59
2022/04/03 06:07:43;;;;;;;4.70;3.30;;;;;;;5.71;43.79;102321.50;5108582;27;20075;-59
2022/04/03 06:10:14;;;;;;;8.05;2.80;;;;;;;5.69;43.80;102329.63;5109985;27;20043;-58
2022/04/03 06:12:56;;;;;;;5.18;2.63;;;;;;;5.67;43.55;102331.63;5111391;28;20063;-59
2022/04/03 06:15:25;;;;;;;5.82;3.10;;;;;;;5.65;43.63;102332.78;5118734;28;20076;-58
2022/04/03 06:17:53;;;;;;;6.00;3.63;;;;;;;5.53;44.11;102338.34;5108667;28;20107;-58
2022/04/03 06:20:22;;;;;;;9.85;3.13;;;;;;;5.52;43.86;102338.47;5125032;27;20051;-59
2022/04/03 06:22:50;;;;;;;6.32;3.25;;;;;;;5.48;44.28;102348.63;5108304;28;20328;-59
2022/04/03 06:25:20;;;;;;;5.63;3.17;;;;;;;5.49;44.80;102347.63;5111423;28;20076;-58
2022/04/03 06:27:48;;;;;;;6.38;3.60;;;;;;;5.49;44.52;102339.63;5112923;28;20051;-59
2022/04/03 06:30:16;;;;;;;6.20;3.22;;;;;;;5.49;44.49;102341.44;5117122;27;20255;-60
2022/04/03 06:32:44;;;;;;;10.57;3.25;;;;;;;5.50;44.67;102343.13;5115136;28;20078;-58
2022/04/03 06:35:12;;;;;;;7.60;3.50;;;;;;;5.49;44.37;102336.97;5101958;28;20090;-58
2022/04/03 06:37:39;;;;;;;8.30;3.50;;;;;;;5.48;44.45;102343.28;5104985;28;20088;-58
2022/04/03 06:40:09;;;;;;;4.78;2.97;;;;;;;5.49;44.63;102338.78;5103754;27;20082;-58
2022/04/03 06:42:38;;;;;;;5.15;3.13;;;;;;;5.48;44.94;102343.28;5115157;28;20083;-60
2022/04/03 06:45:07;;;;;;;8.68;4.18;;;;;;;5.46;45.11;102341.75;5118310;28;20138;-58
2022/04/03 06:47:35;;;;;;;5.15;3.05;;;;;;;5.48;44.97;102350.44;5105955;28;20084;-59
2022/04/03 06:50:04;;;;;;;6.15;3.25;;;;;;;5.47;44.65;102335.44;5105030;28;20153;-59
2022/04/03 06:52:32;;;;;;;7.45;3.45;;;;;;;5.47;44.73;102335.44;5119457;27;20083;-59
2022/04/03 06:54:59;;;;;;;5.53;3.28;;;;;;;5.45;45.01;102330.25;5113500;28;20082;-59
2022/04/03 06:57:27;;;;;;;5.57;2.78;;;;;;;5.46;45.39;102339.09;5120157;28;20405;-59
2022/04/03 06:59:56;;;;;;;6.75;2.85;;;;;;;5.50;45.23;102340.47;5109668;28;20055;-59
2022/04/03 07:02:24;;;;;;;8.20;3.00;;;;;;;5.54;45.16;102336.50;5104177;28;20055;-63
2022/04/03 07:04:52;;;;;;;5.68;3.35;;;;;;;5.56;44.90;102337.19;5107193;28;20099;-59
2022/04/03 07:07:23;;;;;;;5.63;2.88;;;;;;;5.57;45.15;102338.88;5120623;28;20074;-59
2022/04/03 07:09:52;;;;;;;5.72;2.83;;;;;;;5.58;45.35;102335.22;5119932;28;20071;-59
2022/04/03 07:12:20;;;;;;;4.95;2.78;;;;;;;5.60;45.63;102335.88;5118497;28;20119;-60
2022/04/03 07:14:48;;;;;;;7.55;3.28;;;;;;;5.62;45.02;102338.41;5119947;28;20155;-59
2022/04/03 07:17:17;;;;;;;5.90;3.42;;;;;;;5.62;45.07;102336.56;5098945;28;20055;-60
2022/04/03 07:19:45;;;;;;;9.73;3.95;;;;;;;5.63;45.55;102337.41;5120453;28;20074;-59
2022/04/03 07:22:13;;;;;;;5.32;2.90;;;;;;;5.65;45.28;102340.78;5112408;28;20093;-58
2022/04/03 07:24:41;;;;;;;5.57;2.90;;;;;;;5.51;45.63;102326.13;5117864;27;20484;-60
2022/04/03 07:27:09;;;;;;;4.97;3.08;;;;;;;5.64;45.93;102342.59;5120170;28;20516;-59
2022/04/03 07:29:36;;;;;;;5.97;3.30;;;;;;;5.66;45.41;102351.28;5119605;28;20055;-59
2022/04/03 07:32:05;;;;;;;6.43;3.40;;;;;;;5.65;45.58;102346.94;5111454;28;20095;-58
2022/04/03 07:34:34;;;;;;;4.43;3.05;;;;;;;5.64;45.77;102347.94;5106629;27;20052;-59
2022/04/03 07:37:02;;;;;;;6.50;3.10;;;;;;;5.64;45.56;102352.44;5110159;28;20080;-58
2022/04/03 07:39:30;;;;;;;6.03;3.25;;;;;;;5.62;46.27;102351.75;5107882;28;20048;-59
2022/04/03 07:41:59;;;;;;;10.90;3.30;;;;;;;5.52;47.50;102352.66;5115888;28;20052;-61
2022/04/03 07:44:27;;;;;;;10.35;4.57;;;;;;;5.53;46.94;102356.16;5117010;28;20062;-58
2022/04/03 07:46:54;;;;;;;6.38;3.10;;;;;;;5.50;46.83;102343.13;5107193;28;20107;-59
2022/04/03 07:49:23;;;;;;;5.43;3.25;;;;;;;5.55;47.54;102360.34;5115900;28;20087;-58
2022/04/03 07:51:52;;;;;;;9.07;3.45;;;;;;;5.54;46.96;102356.00;5117401;28;20082;-58
2022/04/03 07:54:20;;;;;;;4.95;3.00;;;;;;;5.54;47.45;102355.16;5119042;28;20487;-58
2022/04/03 07:56:48;;;;;;;10.48;3.75;;;;;;;5.56;47.55;102358.53;5117068;28;20110;-58
2022/04/03 07:59:16;;;;;;;5.68;3.05;;;;;;;5.57;47.34;102361.03;5109586;28;20051;-59
2022/04/03 08:01:43;;;;;;;7.90;3.40;;;;;;;5.59;47.77;102360.88;5119259;28;20058;-59
2022/04/03 08:04:12;;;;;;;7.03;3.10;;;;;;;5.60;47.46;102367.91;5117333;28;20055;-59
2022/04/03 08:06:41;;;;;;;8.23;4.20;;;;;;;5.61;47.75;102364.25;5111165;27;20148;-59
2022/04/03 08:09:12;;;;;;;6.50;3.80;;;;;;;5.57;47.21;102363.72;5119333;28;20181;-59
2022/04/03 08:11:41;;;;;;;8.57;3.22;;;;;;;5.55;48.13;102360.34;5115298;28;20090;-58
2022/04/03 08:14:09;;;;;;;6.72;3.20;;;;;;;5.58;48.07;102367.22;5114611;28;20576;-58
2022/04/03 08:16:36;;;;;;;5.20;2.97;;;;;;;5.59;47.95;102360.03;5126063;28;20047;-58
2022/04/03 08:19:06;;;;;;;4.35;2.65;;;;;;;5.58;48.10;102356.53;5117882;28;20050;-59
2022/04/03 08:21:33;;;;;;;5.65;3.60;;;;;;;5.57;48.03;102360.19;5122137;28;20518;-59
2022/04/03 08:24:01;;;;;;;4.28;2.70;;;;;;;5.58;47.85;102361.88;5117818;28;20040;-59
2022/04/03 08:26:30;;;;;;;5.43;2.75;;;;;;;5.60;47.59;102357.22;5114687;28;20629;-59
2022/04/03 08:28:58;;;;;;;5.53;2.63;;;;;;;5.59;48.19;102363.56;5115732;28;20067;-58
2022/04/03 08:31:27;;;;;;;9.20;2.42;;;;;;;5.60;47.84;102359.91;5108324;28;20082;-58
2022/04/03 08:33:57;;;;;;;7.57;2.67;;;;;;;5.56;47.57;102370.03;5120478;28;20105;-58
2022/04/03 08:36:25;;;;;;;5.22;2.25;;;;;;;5.61;47.78;102374.91;5110180;28;20067;-59
2022/04/03 08:38:54;;;;;;;4.88;2.33;;;;;;;5.65;47.04;102375.44;5119741;28;20079;-59
2022/04/03 08:41:22;;;;;;;6.63;2.22;;;;;;;5.60;47.29;102377.72;5117406;28;20067;-59
2022/04/03 08:43:51;;;;;;;4.90;2.13;;;;;;;5.62;47.77;102373.06;5119699;28;20039;-59
2022/04/03 08:46:19;;;;;;;4.78;1.85;;;;;;;5.63;47.71;102369.41;5111142;28;20071;-59
2022/04/03 08:48:47;;;;;;;3.83;1.90;;;;;;;5.66;46.94;102372.63;5111589;28;20051;-59
2022/04/03 08:51:16;;;;;;;3.65;2.08;;;;;;;5.69;47.25;102377.66;5113093;28;20066;-59
2022/04/03 08:53:46;;;;;;;3.50;1.90;;;;;;;5.68;47.11;102378.63;5109608;28;20047;-58
2022/04/03 08:56:14;;;;;;;3.53;1.80;;;;;;;5.72;47.01;102371.19;5123527;28;20093;-59
2022/04/03 08:58:42;;;;;;;4.20;2.00;;;;;;;5.71;47.56;102373.00;5110840;28;20052;-59
2022/04/03 09:01:11;;;;;;;3.60;1.73;;;;;;;5.71;47.62;102378.34;5120506;28;20079;-58
2022/04/03 09:03:39;;;;;;;5.78;2.20;;;;;;;5.72;47.63;102373.84;5117128;28;20047;-58
2022/04/03 09:06:14;;;;;;;2.95;1.50;;;;;;;5.69;48.00;102374.16;5109361;28;20078;-58
2022/04/03 09:08:43;;;;;;;3.70;1.80;;;;;;;5.73;47.86;102372.84;5114195;28;20055;-58
2022/04/03 09:11:11;;;;;;;3.15;1.48;;;;;;;5.72;47.65;102371.19;5121558;28;20442;-59
2022/04/03 09:13:40;;;;;;;7.18;1.70;;;;;;;5.72;47.39;102361.34;5122857;28;20055;-58
2022/04/03 09:16:09;;;;;;;2.83;1.60;;;;;;;5.71;47.91;102365.00;5114996;28;20081;-59
2022/04/03 09:18:47;;;;;;;4.68;1.83;;;;;;;5.74;47.70;102362.03;5120847;28;20092;-58
2022/04/03 09:21:19;;;;;;;2.78;1.30;;;;;;;5.74;47.47;102362.03;5112431;28;20121;-58
2022/04/03 09:23:58;;;;;;;3.20;1.50;;;;;;;5.73;47.46;102354.19;5120266;28;20087;-59
2022/04/03 09:26:26;;;;;;;3.38;1.80;;;;;;;5.76;47.60;102359.22;5121929;28;20116;-59
2022/04/03 09:29:07;;;;;;;3.17;1.58;;;;;;;5.79;47.91;102362.41;5122033;28;20087;-58
2022/04/03 09:31:35;;;;;;;5.18;1.73;;;;;;;5.90;47.58;102360.53;5120997;27;20052;-58
2022/04/03 09:34:08;;;;;;;3.20;1.70;;;;;;;5.94;47.10;102354.72;5122754;28;20043;-59
2022/04/03 09:36:37;;;;;;;2.50;1.30;;;;;;;5.95;47.12;102356.41;5126259;28;20098;-59
2022/04/03 09:39:07;;;;;;;4.47;1.50;;;;;;;5.95;47.16;102348.41;5118740;28;20079;-59
2022/04/03 09:41:53;;;;;;;2.35;1.15;;;;;;;5.95;47.19;102347.56;5119687;28;20051;-61
2022/04/03 09:44:25;;;;;;;3.17;1.42;;;;;;;5.95;47.17;102343.06;5105520;28;20052;-58
2022/04/03 09:47:12;;;;;;;2.42;1.48;;;;;;;6.10;46.72;102332.66;5115989;28;20050;-59
2022/04/03 09:49:42;;;;;;;6.10;1.50;;;;;;;6.14;46.86;102342.88;5120830;28;20051;-60
2022/04/03 09:52:10;;;;;;;3.28;1.52;;;;;;;6.23;46.57;102340.25;5120966;27;20040;-58
2022/04/03 09:54:40;;;;;;;3.53;1.33;;;;;;;6.23;46.21;102325.09;5122956;28;20051;-59
2022/04/03 09:57:21;;;;;;;5.13;1.38;;;;;;;6.30;46.47;102338.63;5125676;28;20519;-59
2022/04/03 09:59:51;;;;;;;5.07;1.20;;;;;;;6.38;46.50;102326.19;5125938;28;20087;-60
2022/04/03 10:02:19;;;;;;;2.78;1.10;;;;;;;6.37;46.53;102331.69;5121204;28;20075;-59
2022/04/03 10:04:49;;;;;;;2.40;1.48;;;;;;;6.32;46.68;102324.13;5125744;28;20519;-58
2022/04/03 10:07:17;;;;;;;3.60;1.85;;;;;;;6.29;46.66;102332.47;5125431;28;20079;-58
2022/04/03 10:09:46;;;;;;;3.92;1.50;;;;;;;6.30;46.06;102312.78;5122656;28;20054;-58
2022/04/03 10:12:17;;;;;;;2.92;1.40;;;;;;;6.34;46.38;102311.47;5119853;28;20059;-58
2022/04/03 10:14:49;;;;;;;3.88;1.13;;;;;;;6.40;46.14;102310.84;5126664;27;20063;-59
2022/04/03 10:17:19;;;;;;;2.33;1.20;;;;;;;6.52;46.08;102312.22;5105038;28;20115;-60
2022/04/03 10:19:47;;;;;;;2.13;1.30;;;;;;;6.63;45.87;102308.44;5105499;28;20062;-60
2022/04/03 10:22:21;;;;;;;2.10;1.00;;;;;;;6.74;45.61;102302.81;5122254;28;20079;-59
2022/04/03 10:24:54;;;;;;;2.00;1.17;;;;;;;6.81;45.36;102295.00;5116470;28;20080;-60
2022/04/03 10:27:25;;;;;;;3.00;1.23;;;;;;;6.87;44.69;102304.19;5124096;28;20048;-60
2022/04/03 10:29:57;;;;;;;3.08;1.40;;;;;;;6.79;44.69;102286.31;5122632;27;20051;-60
2022/04/03 10:32:27;;;;;;;3.30;1.10;;;;;;;6.83;43.32;102299.19;5117531;28;20048;-60
2022/04/03 10:34:58;;;;;;;2.25;0.88;;;;;;;6.81;43.36;102300.34;5120003;28;20043;-59
2022/04/03 10:37:31;;;;;;;1.88;1.15;;;;;;;6.88;43.40;102298.69;5118663;28;20496;-59
2022/04/03 10:40:09;;;;;;;1.85;1.08;;;;;;;6.95;42.91;102297.00;5123464;28;20130;-59
2022/04/03 10:42:50;;;;;;;3.08;1.25;;;;;;;6.98;43.13;102296.69;5124817;28;20079;-59
2022/04/03 10:45:20;;;;;;;1.67;1.00;;;;;;;7.03;43.43;102285.50;5116684;28;20082;-60
2022/04/03 10:47:51;;;;;;;2.08;1.00;;;;;;;7.05;43.63;102284.34;5124735;28;20067;-60
2022/04/03 10:50:19;;;;;;;3.85;1.00;;;;;;;7.08;43.35;102283.19;5122746;28;20079;-59
2022/04/03 10:52:57;;;;;;;0.70;0.70;;;;;;;7.05;43.01;102295.03;5124108;28;20098;-59
2022/04/03 10:55:27;;;;;;;2.33;1.52;;;;;;;6.98;43.18;102287.84;5125372;28;20562;-60
2022/04/03 10:57:57;;;;;;;3.03;1.02;;;;;;;7.00;43.37;102283.16;5122472;28;20043;-60
2022/04/03 11:00:46;;;;;;;3.03;1.20;;;;;;;7.05;43.77;102287.03;5114681;28;20216;-60
2022/04/03 11:03:35;;;;;;;4.10;1.13;;;;;;;7.04;43.70;102282.66;5113040;28;20075;-60
2022/04/03 11:06:30;;;;;;;0.88;0.70;;;;;;;7.08;43.67;102283.19;5124589;28;20143;-61
2022/04/03 11:09:10;;;;;;;6.00;1.20;;;;;;;6.99;43.93;102270.81;5122065;28;20054;-60
2022/04/03 11:11:50;;;;;;;2.33;1.05;;;;;;;7.05;43.68;102272.81;5113407;28;20078;-59
2022/04/03 11:14:55;;;;;;;1.85;1.10;;;;;;;7.04;43.98;102266.63;5124212;28;20171;-59
2022/04/03 11:17:49;;;;;;;2.95;1.00;;;;;;;7.13;43.86;102264.81;5124190;28;20044;-60
2022/04/03 11:20:37;;;;;;;3.25;0.90;;;;;;;7.19;43.94;102261.47;5111251;28;20539;-59
2022/04/03 11:23:06;;;;;;;2.80;1.38;;;;;;;7.17;43.98;102250.13;5122586;28;20074;-60
2022/04/03 11:25:35;;;;;;;1.60;1.15;;;;;;;7.26;43.41;102249.13;5111978;28;20112;-61
2022/04/03 11:28:03;;;;;;;2.00;0.80;;;;;;;7.30;43.70;102257.66;5124012;28;20055;-60
2022/04/03 11:30:32;;;;;;;3.50;1.20;;;;;;;7.29;43.85;102261.31;5112843;28;20052;-59
2022/04/03 11:33:01;;;;;;;3.60;1.30;;;;;;;7.30;43.69;102257.66;5113149;28;20099;-61
2022/04/03 11:35:36;;;;;;;3.15;1.40;;;;;;;7.30;44.18;102254.97;5124500;28;20066;-61
2022/04/03 11:38:04;;;;;;;2.58;1.23;;;;;;;7.28;44.33;102256.97;5120660;28;20086;-60
2022/04/03 11:40:35;;;;;;;2.72;1.20;;;;;;;7.31;43.88;102246.78;5105528;28;20055;-59
2022/04/03 11:43:08;;;;;;;4.82;1.45;;;;;;;7.25;43.96;102250.13;5103765;28;20478;-60
2022/04/03 11:45:35;;;;;;;1.83;1.10;;;;;;;7.25;43.57;102246.63;5113383;28;20052;-60